LWB weather

Greenbrier Valley Airport
Lewisburg, West Virginia, United States

Public forecast

Using degrees Fahrenheit for public forecast. Weather courtesy of forecast.io.

METAR (pilot weather report)

Retrieved 2019/09/24 08:35 UTC (0 seconds ago):

KLWB 240835Z AUTO 00000KT 10SM CLR 15/14 A3000 RMK AO2 T01490137

TAF (pilot weather forecast)

Retrieved 2019/09/24 06:22 UTC (2 hours ago):

TAF KLWB 240520Z 2406/2506 27003KT P6SM SCT050 TEMPO 2409/2412 5SM BR FEW012 FM241400 32006KT P6SM SCT110